sensor_id;sensor_type;location;lat;lon;timestamp;temperature;humidity
71837;DHT22;59686;51.716;7.016;2023-09-07T00:00:55;25.40;82.00
71837;DHT22;59686;51.716;7.016;2023-09-07T00:03:23;25.40;82.00
71837;DHT22;59686;51.716;7.016;2023-09-07T00:05:49;25.40;82.00
71837;DHT22;59686;51.716;7.016;2023-09-07T00:08:14;25.40;82.00
71837;DHT22;59686;51.716;7.016;2023-09-07T00:10:40;25.40;82.00
71837;DHT22;59686;51.716;7.016;2023-09-07T00:13:09;25.40;82.00
71837;DHT22;59686;51.716;7.016;2023-09-07T00:15:38;25.30;81.80
71837;DHT22;59686;51.716;7.016;2023-09-07T00:18:07;25.30;81.80
71837;DHT22;59686;51.716;7.016;2023-09-07T00:20:32;25.30;81.90
71837;DHT22;59686;51.716;7.016;2023-09-07T00:22:59;25.30;81.80
71837;DHT22;59686;51.716;7.016;2023-09-07T00:25:26;25.30;81.90
71837;DHT22;59686;51.716;7.016;2023-09-07T00:27:53;25.30;81.70
71837;DHT22;59686;51.716;7.016;2023-09-07T00:30:19;25.30;81.90
71837;DHT22;59686;51.716;7.016;2023-09-07T00:32:45;25.30;82.60
71837;DHT22;59686;51.716;7.016;2023-09-07T00:35:11;25.20;81.80
71837;DHT22;59686;51.716;7.016;2023-09-07T00:37:37;25.20;81.80
71837;DHT22;59686;51.716;7.016;2023-09-07T00:40:04;25.20;81.80
71837;DHT22;59686;51.716;7.016;2023-09-07T00:42:34;25.20;81.80
71837;DHT22;59686;51.716;7.016;2023-09-07T00:45:00;25.20;81.90
71837;DHT22;59686;51.716;7.016;2023-09-07T00:47:28;25.20;81.90
71837;DHT22;59686;51.716;7.016;2023-09-07T00:49:54;25.20;81.80
71837;DHT22;59686;51.716;7.016;2023-09-07T00:52:23;25.20;81.80
71837;DHT22;59686;51.716;7.016;2023-09-07T00:54:49;25.10;81.70
71837;DHT22;59686;51.716;7.016;2023-09-07T00:57:15;25.10;82.40
71837;DHT22;59686;51.716;7.016;2023-09-07T00:59:41;25.10;81.70
71837;DHT22;59686;51.716;7.016;2023-09-07T01:02:07;25.10;81.70
71837;DHT22;59686;51.716;7.016;2023-09-07T01:04:33;25.10;81.70
71837;DHT22;59686;51.716;7.016;2023-09-07T01:07:17;25.10;81.70
71837;DHT22;59686;51.716;7.016;2023-09-07T01:09:56;25.10;81.70
71837;DHT22;59686;51.716;7.016;2023-09-07T01:12:23;25.10;81.70
71837;DHT22;59686;51.716;7.016;2023-09-07T01:14:49;25.10;81.70
71837;DHT22;59686;51.716;7.016;2023-09-07T01:17:17;25.00;81.70
71837;DHT22;59686;51.716;7.016;2023-09-07T01:19:44;25.00;81.60
71837;DHT22;59686;51.716;7.016;2023-09-07T01:22:11;25.00;81.70
71837;DHT22;59686;51.716;7.016;2023-09-07T01:24:38;25.00;81.60
71837;DHT22;59686;51.716;7.016;2023-09-07T01:27:10;25.00;81.60
71837;DHT22;59686;51.716;7.016;2023-09-07T01:29:36;24.90;81.60
71837;DHT22;59686;51.716;7.016;2023-09-07T01:32:03;25.00;81.60
71837;DHT22;59686;51.716;7.016;2023-09-07T01:34:29;25.00;81.60
71837;DHT22;59686;51.716;7.016;2023-09-07T01:36:57;24.90;81.60
71837;DHT22;59686;51.716;7.016;2023-09-07T01:39:26;24.90;81.50
71837;DHT22;59686;51.716;7.016;2023-09-07T01:41:52;24.90;81.50
71837;DHT22;59686;51.716;7.016;2023-09-07T01:44:18;24.90;81.50
71837;DHT22;59686;51.716;7.016;2023-09-07T01:46:46;24.90;81.40
71837;DHT22;59686;51.716;7.016;2023-09-07T01:49:12;24.80;81.40
71837;DHT22;59686;51.716;7.016;2023-09-07T01:51:38;24.90;81.50
71837;DHT22;59686;51.716;7.016;2023-09-07T01:54:03;24.80;81.40
71837;DHT22;59686;51.716;7.016;2023-09-07T01:56:48;24.80;81.40
71837;DHT22;59686;51.716;7.016;2023-09-07T01:59:15;24.80;81.40
71837;DHT22;59686;51.716;7.016;2023-09-07T02:01:41;24.80;81.40
71837;DHT22;59686;51.716;7.016;2023-09-07T02:04:07;24.80;81.40
71837;DHT22;59686;51.716;7.016;2023-09-07T02:06:32;24.80;82.10
71837;DHT22;59686;51.716;7.016;2023-09-07T02:08:58;24.80;81.40
71837;DHT22;59686;51.716;7.016;2023-09-07T02:11:24;24.80;81.30
71837;DHT22;59686;51.716;7.016;2023-09-07T02:13:50;24.80;82.10
71837;DHT22;59686;51.716;7.016;2023-09-07T02:16:15;24.80;81.30
71837;DHT22;59686;51.716;7.016;2023-09-07T02:18:43;24.60;81.20
71837;DHT22;59686;51.716;7.016;2023-09-07T02:21:11;24.70;81.20
71837;DHT22;59686;51.716;7.016;2023-09-07T02:23:37;24.70;81.20
71837;DHT22;59686;51.716;7.016;2023-09-07T02:26:03;24.70;81.20
71837;DHT22;59686;51.716;7.016;2023-09-07T02:28:29;24.70;81.20
71837;DHT22;59686;51.716;7.016;2023-09-07T02:31:02;24.60;81.10
71837;DHT22;59686;51.716;7.016;2023-09-07T02:33:28;24.70;81.10
71837;DHT22;59686;51.716;7.016;2023-09-07T02:35:54;24.60;81.00
71837;DHT22;59686;51.716;7.016;2023-09-07T02:38:20;24.60;81.00
71837;DHT22;59686;51.716;7.016;2023-09-07T02:40:45;24.60;81.10
71837;DHT22;59686;51.716;7.016;2023-09-07T02:43:12;24.60;81.10
71837;DHT22;59686;51.716;7.016;2023-09-07T02:45:39;24.60;81.00
71837;DHT22;59686;51.716;7.016;2023-09-07T02:48:05;24.60;81.10
71837;DHT22;59686;51.716;7.016;2023-09-07T02:50:33;24.60;81.10
71837;DHT22;59686;51.716;7.016;2023-09-07T02:53:00;24.50;81.00
71837;DHT22;59686;51.716;7.016;2023-09-07T02:55:27;24.50;81.00
71837;DHT22;59686;51.716;7.016;2023-09-07T02:57:52;24.50;80.90
71837;DHT22;59686;51.716;7.016;2023-09-07T03:00:19;24.50;81.00
71837;DHT22;59686;51.716;7.016;2023-09-07T03:02:44;24.50;80.90
71837;DHT22;59686;51.716;7.016;2023-09-07T03:05:10;24.50;80.90
71837;DHT22;59686;51.716;7.016;2023-09-07T03:07:36;24.50;81.00
71837;DHT22;59686;51.716;7.016;2023-09-07T03:10:02;24.40;80.90
71837;DHT22;59686;51.716;7.016;2023-09-07T03:12:28;24.50;80.90
71837;DHT22;59686;51.716;7.016;2023-09-07T03:14:54;24.40;80.80
71837;DHT22;59686;51.716;7.016;2023-09-07T03:17:20;24.40;80.90
71837;DHT22;59686;51.716;7.016;2023-09-07T03:19:47;24.40;81.00
71837;DHT22;59686;51.716;7.016;2023-09-07T03:22:13;24.40;80.90
71837;DHT22;59686;51.716;7.016;2023-09-07T03:24:39;24.40;80.90
71837;DHT22;59686;51.716;7.016;2023-09-07T03:27:04;24.40;80.90
71837;DHT22;59686;51.716;7.016;2023-09-07T03:29:31;24.40;80.90
71837;DHT22;59686;51.716;7.016;2023-09-07T03:31:59;24.40;80.80
71837;DHT22;59686;51.716;7.016;2023-09-07T03:34:25;24.30;80.80
71837;DHT22;59686;51.716;7.016;2023-09-07T03:36:51;24.30;80.80
71837;DHT22;59686;51.716;7.016;2023-09-07T03:39:16;24.30;80.70
71837;DHT22;59686;51.716;7.016;2023-09-07T03:41:44;24.30;80.70
71837;DHT22;59686;51.716;7.016;2023-09-07T03:44:10;24.30;80.80
71837;DHT22;59686;51.716;7.016;2023-09-07T03:46:36;24.30;80.70
71837;DHT22;59686;51.716;7.016;2023-09-07T03:49:02;24.30;80.70
71837;DHT22;59686;51.716;7.016;2023-09-07T03:51:28;24.30;80.70
71837;DHT22;59686;51.716;7.016;2023-09-07T03:53:53;24.30;80.70
71837;DHT22;59686;51.716;7.016;2023-09-07T03:56:19;24.20;80.60
71837;DHT22;59686;51.716;7.016;2023-09-07T03:58:45;24.20;80.60
71837;DHT22;59686;51.716;7.016;2023-09-07T04:01:13;24.20;80.70
71837;DHT22;59686;51.716;7.016;2023-09-07T04:03:39;24.20;80.70
71837;DHT22;59686;51.716;7.016;2023-09-07T04:06:08;24.20;80.70
71837;DHT22;59686;51.716;7.016;2023-09-07T04:08:34;24.20;80.60
71837;DHT22;59686;51.716;7.016;2023-09-07T04:11:07;24.10;80.60
71837;DHT22;59686;51.716;7.016;2023-09-07T04:13:33;24.10;80.60
71837;DHT22;59686;51.716;7.016;2023-09-07T04:15:59;24.10;80.60
71837;DHT22;59686;51.716;7.016;2023-09-07T04:18:24;24.10;80.70
71837;DHT22;59686;51.716;7.016;2023-09-07T04:20:50;24.10;80.70
71837;DHT22;59686;51.716;7.016;2023-09-07T04:23:16;24.10;80.70
71837;DHT22;59686;51.716;7.016;2023-09-07T04:25:45;24.10;80.70
71837;DHT22;59686;51.716;7.016;2023-09-07T04:28:11;24.10;80.80
71837;DHT22;59686;51.716;7.016;2023-09-07T04:30:38;24.00;80.70
71837;DHT22;59686;51.716;7.016;2023-09-07T04:33:04;24.00;80.70
71837;DHT22;59686;51.716;7.016;2023-09-07T04:35:32;24.00;80.70
71837;DHT22;59686;51.716;7.016;2023-09-07T04:37:58;24.00;80.70
71837;DHT22;59686;51.716;7.016;2023-09-07T04:40:25;24.00;80.70
71837;DHT22;59686;51.716;7.016;2023-09-07T04:42:51;24.00;80.70
71837;DHT22;59686;51.716;7.016;2023-09-07T04:45:17;24.00;80.70
71837;DHT22;59686;51.716;7.016;2023-09-07T04:47:43;23.90;80.70
71837;DHT22;59686;51.716;7.016;2023-09-07T04:50:09;23.90;80.70
71837;DHT22;59686;51.716;7.016;2023-09-07T04:52:35;23.90;80.70
71837;DHT22;59686;51.716;7.016;2023-09-07T04:55:01;23.90;80.80
71837;DHT22;59686;51.716;7.016;2023-09-07T04:57:27;23.90;80.70
71837;DHT22;59686;51.716;7.016;2023-09-07T04:59:53;23.90;80.70
71837;DHT22;59686;51.716;7.016;2023-09-07T05:02:19;23.90;80.80
71837;DHT22;59686;51.716;7.016;2023-09-07T05:04:44;23.80;80.70
71837;DHT22;59686;51.716;7.016;2023-09-07T05:07:10;23.80;80.70
71837;DHT22;59686;51.716;7.016;2023-09-07T05:09:36;23.80;80.60
71837;DHT22;59686;51.716;7.016;2023-09-07T05:12:02;23.80;80.60
71837;DHT22;59686;51.716;7.016;2023-09-07T05:14:28;23.80;80.60
71837;DHT22;59686;51.716;7.016;2023-09-07T05:16:56;23.80;80.50
71837;DHT22;59686;51.716;7.016;2023-09-07T05:19:22;23.80;80.50
71837;DHT22;59686;51.716;7.016;2023-09-07T05:22:00;23.80;80.50
71837;DHT22;59686;51.716;7.016;2023-09-07T05:24:26;23.80;80.50
71837;DHT22;59686;51.716;7.016;2023-09-07T05:26:51;23.80;80.50
71837;DHT22;59686;51.716;7.016;2023-09-07T05:29:17;23.70;80.40
71837;DHT22;59686;51.716;7.016;2023-09-07T05:31:45;23.70;80.40
71837;DHT22;59686;51.716;7.016;2023-09-07T05:34:11;23.70;80.50
71837;DHT22;59686;51.716;7.016;2023-09-07T05:36:39;23.70;81.20
71837;DHT22;59686;51.716;7.016;2023-09-07T05:39:05;23.70;80.50
71837;DHT22;59686;51.716;7.016;2023-09-07T05:41:32;23.70;80.60
71837;DHT22;59686;51.716;7.016;2023-09-07T05:43:58;23.70;80.50
71837;DHT22;59686;51.716;7.016;2023-09-07T05:46:24;23.70;80.50
71837;DHT22;59686;51.716;7.016;2023-09-07T05:48:51;23.70;80.50
71837;DHT22;59686;51.716;7.016;2023-09-07T05:51:16;23.70;80.60
71837;DHT22;59686;51.716;7.016;2023-09-07T05:53:42;23.60;80.50
71837;DHT22;59686;51.716;7.016;2023-09-07T05:56:11;23.60;80.60
71837;DHT22;59686;51.716;7.016;2023-09-07T05:58:42;23.60;80.60
71837;DHT22;59686;51.716;7.016;2023-09-07T06:01:08;23.60;80.70
71837;DHT22;59686;51.716;7.016;2023-09-07T06:03:34;23.60;80.70
71837;DHT22;59686;51.716;7.016;2023-09-07T06:06:00;23.60;80.80
71837;DHT22;59686;51.716;7.016;2023-09-07T06:08:26;23.60;80.80
71837;DHT22;59686;51.716;7.016;2023-09-07T06:10:53;23.60;80.80
71837;DHT22;59686;51.716;7.016;2023-09-07T06:13:19;23.50;80.70
71837;DHT22;59686;51.716;7.016;2023-09-07T06:15:44;23.50;80.70
71837;DHT22;59686;51.716;7.016;2023-09-07T06:18:10;23.50;80.80
71837;DHT22;59686;51.716;7.016;2023-09-07T06:20:36;23.50;80.80
71837;DHT22;59686;51.716;7.016;2023-09-07T06:23:01;23.50;80.80
71837;DHT22;59686;51.716;7.016;2023-09-07T06:25:29;23.50;80.80
71837;DHT22;59686;51.716;7.016;2023-09-07T06:27:55;23.50;80.80
71837;DHT22;59686;51.716;7.016;2023-09-07T06:30:20;23.50;80.80
71837;DHT22;59686;51.716;7.016;2023-09-07T06:32:47;23.50;80.90
71837;DHT22;59686;51.716;7.016;2023-09-07T06:35:14;23.50;80.80
71837;DHT22;59686;51.716;7.016;2023-09-07T06:37:39;23.50;80.90
71837;DHT22;59686;51.716;7.016;2023-09-07T06:40:08;23.50;80.90
71837;DHT22;59686;51.716;7.016;2023-09-07T06:42:34;23.50;80.90
71837;DHT22;59686;51.716;7.016;2023-09-07T06:45:00;23.40;81.00
71837;DHT22;59686;51.716;7.016;2023-09-07T06:47:26;23.50;81.00
71837;DHT22;59686;51.716;7.016;2023-09-07T06:49:52;23.40;80.90
71837;DHT22;59686;51.716;7.016;2023-09-07T06:52:17;23.40;80.90
71837;DHT22;59686;51.716;7.016;2023-09-07T06:54:43;23.40;80.90
71837;DHT22;59686;51.716;7.016;2023-09-07T06:57:10;23.40;80.90
71837;DHT22;59686;51.716;7.016;2023-09-07T06:59:36;23.40;80.90
71837;DHT22;59686;51.716;7.016;2023-09-07T07:02:01;23.40;80.90
71837;DHT22;59686;51.716;7.016;2023-09-07T07:04:30;23.40;80.90
71837;DHT22;59686;51.716;7.016;2023-09-07T07:06:56;23.30;80.80
71837;DHT22;59686;51.716;7.016;2023-09-07T07:09:21;23.40;80.90
71837;DHT22;59686;51.716;7.016;2023-09-07T07:11:47;23.40;80.90
71837;DHT22;59686;51.716;7.016;2023-09-07T07:14:13;23.40;80.90
71837;DHT22;59686;51.716;7.016;2023-09-07T07:17:11;23.40;80.90
71837;DHT22;59686;51.716;7.016;2023-09-07T07:19:37;23.40;80.90
71837;DHT22;59686;51.716;7.016;2023-09-07T07:22:03;23.40;81.00
71837;DHT22;59686;51.716;7.016;2023-09-07T07:24:28;23.30;80.80
71837;DHT22;59686;51.716;7.016;2023-09-07T07:26:54;23.30;80.90
71837;DHT22;59686;51.716;7.016;2023-09-07T07:29:22;23.30;81.00
71837;DHT22;59686;51.716;7.016;2023-09-07T07:31:53;23.30;81.00
71837;DHT22;59686;51.716;7.016;2023-09-07T07:34:21;23.30;80.90
71837;DHT22;59686;51.716;7.016;2023-09-07T07:36:46;23.30;81.00
71837;DHT22;59686;51.716;7.016;2023-09-07T07:39:15;23.30;81.00
71837;DHT22;59686;51.716;7.016;2023-09-07T07:41:41;23.30;80.90
71837;DHT22;59686;51.716;7.016;2023-09-07T07:44:07;23.30;80.80
71837;DHT22;59686;51.716;7.016;2023-09-07T07:46:33;23.30;80.80
71837;DHT22;59686;51.716;7.016;2023-09-07T07:48:59;23.30;80.80
71837;DHT22;59686;51.716;7.016;2023-09-07T07:51:25;23.30;80.70
71837;DHT22;59686;51.716;7.016;2023-09-07T07:53:56;23.30;80.80
71837;DHT22;59686;51.716;7.016;2023-09-07T07:56:23;23.30;80.80
71837;DHT22;59686;51.716;7.016;2023-09-07T07:58:50;23.30;80.90
71837;DHT22;59686;51.716;7.016;2023-09-07T08:01:19;23.30;80.90
71837;DHT22;59686;51.716;7.016;2023-09-07T08:03:48;23.30;80.90
71837;DHT22;59686;51.716;7.016;2023-09-07T08:06:14;23.30;80.90
71837;DHT22;59686;51.716;7.016;2023-09-07T08:08:41;23.30;80.90
71837;DHT22;59686;51.716;7.016;2023-09-07T08:11:07;23.30;80.90
71837;DHT22;59686;51.716;7.016;2023-09-07T08:13:34;23.30;80.90
71837;DHT22;59686;51.716;7.016;2023-09-07T08:16:03;23.20;80.80
71837;DHT22;59686;51.716;7.016;2023-09-07T08:18:29;23.30;80.80
71837;DHT22;59686;51.716;7.016;2023-09-07T08:20:59;23.30;80.90
71837;DHT22;59686;51.716;7.016;2023-09-07T08:23:25;23.20;80.80
71837;DHT22;59686;51.716;7.016;2023-09-07T08:25:52;23.10;80.90
71837;DHT22;59686;51.716;7.016;2023-09-07T08:28:18;23.20;80.90
71837;DHT22;59686;51.716;7.016;2023-09-07T08:30:45;23.30;81.00
71837;DHT22;59686;51.716;7.016;2023-09-07T08:33:11;23.20;81.00
71837;DHT22;59686;51.716;7.016;2023-09-07T08:35:37;23.20;81.00
71837;DHT22;59686;51.716;7.016;2023-09-07T08:38:11;23.20;81.00
71837;DHT22;59686;51.716;7.016;2023-09-07T08:40:38;23.20;80.90
71837;DHT22;59686;51.716;7.016;2023-09-07T08:43:08;23.20;80.90
71837;DHT22;59686;51.716;7.016;2023-09-07T08:45:41;23.20;80.90
71837;DHT22;59686;51.716;7.016;2023-09-07T08:48:08;23.20;81.00
71837;DHT22;59686;51.716;7.016;2023-09-07T08:50:36;23.20;81.00
71837;DHT22;59686;51.716;7.016;2023-09-07T08:53:03;23.20;81.00
71837;DHT22;59686;51.716;7.016;2023-09-07T08:55:30;23.20;81.00
71837;DHT22;59686;51.716;7.016;2023-09-07T08:57:57;23.20;81.10
71837;DHT22;59686;51.716;7.016;2023-09-07T09:00:23;23.20;81.10
71837;DHT22;59686;51.716;7.016;2023-09-07T09:02:49;23.20;81.10
71837;DHT22;59686;51.716;7.016;2023-09-07T09:05:15;23.20;81.10
71837;DHT22;59686;51.716;7.016;2023-09-07T09:07:43;23.20;81.10
71837;DHT22;59686;51.716;7.016;2023-09-07T09:10:10;23.20;81.10
71837;DHT22;59686;51.716;7.016;2023-09-07T09:12:35;23.20;81.10
71837;DHT22;59686;51.716;7.016;2023-09-07T09:15:01;23.20;81.00
71837;DHT22;59686;51.716;7.016;2023-09-07T09:17:30;23.20;81.00
71837;DHT22;59686;51.716;7.016;2023-09-07T09:19:56;23.20;81.00
71837;DHT22;59686;51.716;7.016;2023-09-07T09:22:21;23.20;81.00
71837;DHT22;59686;51.716;7.016;2023-09-07T09:24:50;23.20;81.00
71837;DHT22;59686;51.716;7.016;2023-09-07T09:27:16;23.20;81.00
71837;DHT22;59686;51.716;7.016;2023-09-07T09:29:42;23.20;81.00
71837;DHT22;59686;51.716;7.016;2023-09-07T09:32:08;23.20;81.10
71837;DHT22;59686;51.716;7.016;2023-09-07T09:34:35;23.20;81.10
71837;DHT22;59686;51.716;7.016;2023-09-07T09:37:01;23.20;81.10
71837;DHT22;59686;51.716;7.016;2023-09-07T09:39:29;23.20;81.20
71837;DHT22;59686;51.716;7.016;2023-09-07T09:41:55;23.20;81.20
71837;DHT22;59686;51.716;7.016;2023-09-07T09:44:22;23.10;81.20
71837;DHT22;59686;51.716;7.016;2023-09-07T09:46:55;23.20;81.30
71837;DHT22;59686;51.716;7.016;2023-09-07T09:49:22;23.20;81.30
71837;DHT22;59686;51.716;7.016;2023-09-07T09:51:49;23.20;81.40
71837;DHT22;59686;51.716;7.016;2023-09-07T09:54:20;23.20;81.50
71837;DHT22;59686;51.716;7.016;2023-09-07T09:56:46;23.20;81.50
71837;DHT22;59686;51.716;7.016;2023-09-07T09:59:17;23.20;81.50
71837;DHT22;59686;51.716;7.016;2023-09-07T10:01:45;23.20;81.50
71837;DHT22;59686;51.716;7.016;2023-09-07T10:04:17;23.20;81.50
71837;DHT22;59686;51.716;7.016;2023-09-07T10:06:59;23.30;81.60
71837;DHT22;59686;51.716;7.016;2023-09-07T10:09:33;23.30;81.60
71837;DHT22;59686;51.716;7.016;2023-09-07T10:11:59;23.30;81.60
71837;DHT22;59686;51.716;7.016;2023-09-07T10:14:25;23.30;81.60
71837;DHT22;59686;51.716;7.016;2023-09-07T10:16:53;23.30;81.60
71837;DHT22;59686;51.716;7.016;2023-09-07T10:19:25;23.30;81.60
71837;DHT22;59686;51.716;7.016;2023-09-07T10:21:55;23.30;81.50
71837;DHT22;59686;51.716;7.016;2023-09-07T10:24:32;23.30;81.50
71837;DHT22;59686;51.716;7.016;2023-09-07T10:27:05;23.30;81.40
71837;DHT22;59686;51.716;7.016;2023-09-07T10:29:50;23.30;81.30
71837;DHT22;59686;51.716;7.016;2023-09-07T10:32:40;23.30;81.10
71837;DHT22;59686;51.716;7.016;2023-09-07T10:35:20;23.30;81.20
71837;DHT22;59686;51.716;7.016;2023-09-07T10:37:48;23.40;81.10
71837;DHT22;59686;51.716;7.016;2023-09-07T10:40:23;23.30;81.10
71837;DHT22;59686;51.716;7.016;2023-09-07T10:42:49;23.30;81.10
71837;DHT22;59686;51.716;7.016;2023-09-07T10:45:16;23.30;80.90
71837;DHT22;59686;51.716;7.016;2023-09-07T10:47:43;23.30;80.80
71837;DHT22;59686;51.716;7.016;2023-09-07T10:50:13;23.40;80.70
71837;DHT22;59686;51.716;7.016;2023-09-07T10:52:42;23.40;80.50
71837;DHT22;59686;51.716;7.016;2023-09-07T10:55:10;23.40;80.40
71837;DHT22;59686;51.716;7.016;2023-09-07T10:57:54;23.40;80.30
71837;DHT22;59686;51.716;7.016;2023-09-07T11:00:19;23.40;80.20
71837;DHT22;59686;51.716;7.016;2023-09-07T11:02:45;23.40;80.20
71837;DHT22;59686;51.716;7.016;2023-09-07T11:05:11;23.40;80.10
71837;DHT22;59686;51.716;7.016;2023-09-07T11:07:37;23.40;79.90
71837;DHT22;59686;51.716;7.016;2023-09-07T11:10:06;23.40;79.90
71837;DHT22;59686;51.716;7.016;2023-09-07T11:12:37;23.50;79.90
71837;DHT22;59686;51.716;7.016;2023-09-07T11:15:03;23.50;79.90
71837;DHT22;59686;51.716;7.016;2023-09-07T11:17:30;23.50;79.80
71837;DHT22;59686;51.716;7.016;2023-09-07T11:19:56;23.50;79.80
71837;DHT22;59686;51.716;7.016;2023-09-07T11:22:22;23.50;79.90
71837;DHT22;59686;51.716;7.016;2023-09-07T11:24:48;23.50;79.90
71837;DHT22;59686;51.716;7.016;2023-09-07T11:27:17;23.50;79.70
71837;DHT22;59686;51.716;7.016;2023-09-07T11:29:52;23.50;79.70
71837;DHT22;59686;51.716;7.016;2023-09-07T11:32:17;23.60;79.80
71837;DHT22;59686;51.716;7.016;2023-09-07T11:34:51;23.60;79.80
71837;DHT22;59686;51.716;7.016;2023-09-07T11:37:18;23.50;79.80
71837;DHT22;59686;51.716;7.016;2023-09-07T11:39:44;23.60;79.70
71837;DHT22;59686;51.716;7.016;2023-09-07T11:42:10;23.50;79.50
71837;DHT22;59686;51.716;7.016;2023-09-07T11:44:36;23.60;79.70
71837;DHT22;59686;51.716;7.016;2023-09-07T11:47:01;23.60;79.70
71837;DHT22;59686;51.716;7.016;2023-09-07T11:49:28;23.60;79.50
71837;DHT22;59686;51.716;7.016;2023-09-07T11:51:57;23.60;79.40
71837;DHT22;59686;51.716;7.016;2023-09-07T11:54:35;23.60;79.40
71837;DHT22;59686;51.716;7.016;2023-09-07T11:57:03;23.70;79.20
71837;DHT22;59686;51.716;7.016;2023-09-07T11:59:29;23.70;79.20
71837;DHT22;59686;51.716;7.016;2023-09-07T12:01:54;23.70;79.20
71837;DHT22;59686;51.716;7.016;2023-09-07T12:04:20;23.70;79.20
71837;DHT22;59686;51.716;7.016;2023-09-07T12:06:46;23.80;79.20
71837;DHT22;59686;51.716;7.016;2023-09-07T12:09:12;23.70;79.10
71837;DHT22;59686;51.716;7.016;2023-09-07T12:11:37;23.80;79.10
71837;DHT22;59686;51.716;7.016;2023-09-07T12:14:03;23.80;79.10
71837;DHT22;59686;51.716;7.016;2023-09-07T12:16:33;23.80;79.10
71837;DHT22;59686;51.716;7.016;2023-09-07T12:18:59;23.80;79.20
71837;DHT22;59686;51.716;7.016;2023-09-07T12:21:25;23.80;79.00
71837;DHT22;59686;51.716;7.016;2023-09-07T12:23:50;23.90;79.00
71837;DHT22;59686;51.716;7.016;2023-09-07T12:26:16;23.80;78.90
71837;DHT22;59686;51.716;7.016;2023-09-07T12:28:46;23.90;78.90
71837;DHT22;59686;51.716;7.016;2023-09-07T12:31:12;23.90;78.70
71837;DHT22;59686;51.716;7.016;2023-09-07T12:33:39;24.00;78.90
71837;DHT22;59686;51.716;7.016;2023-09-07T12:36:05;24.00;78.90
71837;DHT22;59686;51.716;7.016;2023-09-07T12:38:34;24.00;78.90
71837;DHT22;59686;51.716;7.016;2023-09-07T12:41:00;24.00;78.80
71837;DHT22;59686;51.716;7.016;2023-09-07T12:43:26;24.10;79.60
71837;DHT22;59686;51.716;7.016;2023-09-07T12:45:52;24.00;78.90
71837;DHT22;59686;51.716;7.016;2023-09-07T12:48:19;24.10;78.80
71837;DHT22;59686;51.716;7.016;2023-09-07T12:50:44;24.10;78.60
71837;DHT22;59686;51.716;7.016;2023-09-07T12:53:10;24.10;78.50
71837;DHT22;59686;51.716;7.016;2023-09-07T12:55:41;24.20;78.40
71837;DHT22;59686;51.716;7.016;2023-09-07T12:58:06;24.10;78.20
71837;DHT22;59686;51.716;7.016;2023-09-07T13:00:33;24.20;78.20
71837;DHT22;59686;51.716;7.016;2023-09-07T13:02:59;24.20;78.10
71837;DHT22;59686;51.716;7.016;2023-09-07T13:05:29;24.30;78.00
71837;DHT22;59686;51.716;7.016;2023-09-07T13:07:55;24.30;78.10
71837;DHT22;59686;51.716;7.016;2023-09-07T13:10:21;24.30;78.00
71837;DHT22;59686;51.716;7.016;2023-09-07T13:12:47;24.30;78.00
71837;DHT22;59686;51.716;7.016;2023-09-07T13:15:13;24.30;78.00
71837;DHT22;59686;51.716;7.016;2023-09-07T13:17:41;24.40;78.00
71837;DHT22;59686;51.716;7.016;2023-09-07T13:20:07;24.40;78.00
71837;DHT22;59686;51.716;7.016;2023-09-07T13:22:33;24.40;77.80
71837;DHT22;59686;51.716;7.016;2023-09-07T13:24:58;24.50;77.90
71837;DHT22;59686;51.716;7.016;2023-09-07T13:27:24;24.50;77.90
71837;DHT22;59686;51.716;7.016;2023-09-07T13:29:51;24.50;77.80
71837;DHT22;59686;51.716;7.016;2023-09-07T13:32:17;24.50;78.60
71837;DHT22;59686;51.716;7.016;2023-09-07T13:34:42;24.50;77.60
71837;DHT22;59686;51.716;7.016;2023-09-07T13:37:08;24.50;77.50
71837;DHT22;59686;51.716;7.016;2023-09-07T13:39:34;24.50;77.30
71837;DHT22;59686;51.716;7.016;2023-09-07T13:42:02;24.60;77.20
71837;DHT22;59686;51.716;7.016;2023-09-07T13:44:28;24.60;77.30
71837;DHT22;59686;51.716;7.016;2023-09-07T13:46:55;24.60;77.10
71837;DHT22;59686;51.716;7.016;2023-09-07T13:49:21;24.70;77.20
71837;DHT22;59686;51.716;7.016;2023-09-07T13:51:46;24.70;77.30
71837;DHT22;59686;51.716;7.016;2023-09-07T13:54:12;24.80;77.10
71837;DHT22;59686;51.716;7.016;2023-09-07T13:56:38;24.80;77.00
71837;DHT22;59686;51.716;7.016;2023-09-07T13:59:05;24.80;76.70
71837;DHT22;59686;51.716;7.016;2023-09-07T14:01:30;24.80;76.60
71837;DHT22;59686;51.716;7.016;2023-09-07T14:04:00;24.90;76.50
71837;DHT22;59686;51.716;7.016;2023-09-07T14:06:28;24.80;77.10
71837;DHT22;59686;51.716;7.016;2023-09-07T14:08:55;24.90;76.50
71837;DHT22;59686;51.716;7.016;2023-09-07T14:11:24;24.90;76.20
71837;DHT22;59686;51.716;7.016;2023-09-07T14:13:50;24.90;76.00
71837;DHT22;59686;51.716;7.016;2023-09-07T14:16:20;24.90;76.00
71837;DHT22;59686;51.716;7.016;2023-09-07T14:18:46;25.00;76.00
71837;DHT22;59686;51.716;7.016;2023-09-07T14:21:17;25.00;75.90
71837;DHT22;59686;51.716;7.016;2023-09-07T14:23:43;25.00;75.70
71837;DHT22;59686;51.716;7.016;2023-09-07T14:26:09;25.10;75.40
71837;DHT22;59686;51.716;7.016;2023-09-07T14:28:35;25.10;75.20
71837;DHT22;59686;51.716;7.016;2023-09-07T14:31:03;25.10;75.00
71837;DHT22;59686;51.716;7.016;2023-09-07T14:33:32;25.10;75.00
71837;DHT22;59686;51.716;7.016;2023-09-07T14:36:00;25.20;75.00
71837;DHT22;59686;51.716;7.016;2023-09-07T14:38:26;25.20;75.00
71837;DHT22;59686;51.716;7.016;2023-09-07T14:40:53;25.30;75.00
71837;DHT22;59686;51.716;7.016;2023-09-07T14:43:23;25.30;74.70
71837;DHT22;59686;51.716;7.016;2023-09-07T14:45:50;25.30;74.80
71837;DHT22;59686;51.716;7.016;2023-09-07T14:48:16;25.40;74.70
71837;DHT22;59686;51.716;7.016;2023-09-07T14:50:42;25.40;74.80
71837;DHT22;59686;51.716;7.016;2023-09-07T14:53:07;25.40;74.60
71837;DHT22;59686;51.716;7.016;2023-09-07T14:55:33;25.40;74.50
71837;DHT22;59686;51.716;7.016;2023-09-07T14:57:59;25.40;74.60
71837;DHT22;59686;51.716;7.016;2023-09-07T15:00:27;25.50;74.60
71837;DHT22;59686;51.716;7.016;2023-09-07T15:02:58;25.50;74.60
71837;DHT22;59686;51.716;7.016;2023-09-07T15:05:24;25.50;74.50
71837;DHT22;59686;51.716;7.016;2023-09-07T15:07:49;25.50;74.50
71837;DHT22;59686;51.716;7.016;2023-09-07T15:10:15;25.50;74.20
71837;DHT22;59686;51.716;7.016;2023-09-07T15:12:41;25.60;74.30
71837;DHT22;59686;51.716;7.016;2023-09-07T15:15:07;25.60;74.10
71837;DHT22;59686;51.716;7.016;2023-09-07T15:17:38;25.60;74.10
71837;DHT22;59686;51.716;7.016;2023-09-07T15:20:06;25.60;74.10
71837;DHT22;59686;51.716;7.016;2023-09-07T15:22:32;25.70;73.80
71837;DHT22;59686;51.716;7.016;2023-09-07T15:24:59;25.70;73.50
71837;DHT22;59686;51.716;7.016;2023-09-07T15:27:26;25.70;73.60
71837;DHT22;59686;51.716;7.016;2023-09-07T15:29:52;25.70;73.50